<?xml version="1.0" encoding="UTF-8" standalone="no" ?>
<gpx xmlns="http://www.topografix.com/GPX/1/1" xmlns:xsi="http://www.w3.org/2001/XMLSchema-instance" xsi:schemaLocation="http://www.topografix.com/GPX/1/1 http://www.topografix.com/GPX/1/1/gpx.xsd" version="1.1" creator="VisuGPX - https://www.visugpx.com">
  <metadata>
    <name>Plan de Baix, Gorges de la Gervanne, Cascade de la Druise, Croix du Vellan</name>
  </metadata>
  <wpt lat="44.81289" lon="5.16449">
    <ele>714</ele>
    <name><![CDATA[Parking obligatoire de Plan de Baix]]></name>
  </wpt>
  <wpt lat="44.80968" lon="5.16756">
    <ele>683</ele>
    <name><![CDATA[Tourner à 90°, direction les Deux Eaux]]></name>
  </wpt>
  <wpt lat="44.80794" lon="5.17142">
    <ele>629</ele>
    <name><![CDATA[Mât de la Bâtie, à gauche, direction les 2 Eaux]]></name>
  </wpt>
  <wpt lat="44.80489" lon="5.17561">
    <ele>410</ele>
    <name><![CDATA[Remonter en rive droite de la]]></name>
  </wpt>
  <wpt lat="44.8269" lon="5.19392">
    <ele>507</ele>
    <name><![CDATA[À gauche, en A/R cascade de la Druise]]></name>
  </wpt>
  <wpt lat="44.83709" lon="5.18711">
    <ele>573</ele>
    <name><![CDATA[ Pont sur la Gervanne]]></name>
  </wpt>
  <wpt lat="44.84152" lon="5.18886">
    <ele>616</ele>
    <name><![CDATA[Mât de Baume Noire, à gauche direction Chaffal]]></name>
  </wpt>
  <wpt lat="44.84603" lon="5.18872">
    <ele>664</ele>
    <name><![CDATA[Mât du Crot, direction Plan de Baix]]></name>
  </wpt>
  <wpt lat="44.86017" lon="5.18124">
    <ele>996</ele>
    <name><![CDATA[À gauche sur piste, direction Vellan, Plan de Baix]]></name>
  </wpt>
  <wpt lat="44.81856" lon="5.16873">
    <ele>926</ele>
    <name><![CDATA[À gauche, Croix du Vellan]]></name>
  </wpt>
  <wpt lat="44.81761" lon="5.16755">
    <ele>881</ele>
    <name><![CDATA[Mât de dessous du Vellan, à gauche]]></name>
  </wpt>
  <wpt lat="44.81775" lon="5.17387">
    <ele>773</ele>
    <name><![CDATA[Route de Vialaret, à droite]]></name>
  </wpt>
  <wpt lat="44.8129" lon="5.1645">
    <ele>714</ele>
    <name><![CDATA[Parking de Plan de Baix]]></name>
  </wpt>
  <trk>
    <name><![CDATA[Plan de Baix, Gorges de la Gervanne, Cascade de la Druise, Croix du Vellan]]></name>
    <trkseg>
      <trkpt lat="44.81289" lon="5.16449">
        <ele>714</ele>
        <time>2021-08-26T18:35:06+02:00</time>
      </trkpt>
      <trkpt lat="44.81291" lon="5.16443">
        <ele>713</ele>
        <time>2021-08-26T18:35:11+02:00</time>
      </trkpt>
      <trkpt lat="44.81296" lon="5.16443">
        <ele>714</ele>
        <time>2021-08-26T18:35:16+02:00</time>
      </trkpt>
      <trkpt lat="44.81299" lon="5.16452">
        <ele>715</ele>
        <time>2021-08-26T18:35:21+02:00</time>
      </trkpt>
      <trkpt lat="44.81296" lon="5.16464">
        <ele>716</ele>
        <time>2021-08-26T18:35:26+02:00</time>
      </trkpt>
      <trkpt lat="44.81287" lon="5.16474">
        <ele>717</ele>
        <time>2021-08-26T18:35:31+02:00</time>
      </trkpt>
      <trkpt lat="44.81283" lon="5.16487">
        <ele>717</ele>
        <time>2021-08-26T18:35:36+02:00</time>
      </trkpt>
      <trkpt lat="44.81286" lon="5.16498">
        <ele>719</ele>
        <time>2021-08-26T18:35:41+02:00</time>
      </trkpt>
      <trkpt lat="44.81313" lon="5.16503">
        <ele>723</ele>
        <time>2021-08-26T18:35:46+02:00</time>
      </trkpt>
      <trkpt lat="44.81308" lon="5.16513">
        <ele>723</ele>
        <time>2021-08-26T18:35:51+02:00</time>
      </trkpt>
      <trkpt lat="44.81303" lon="5.16518">
        <ele>724</ele>
        <time>2021-08-26T18:35:56+02:00</time>
      </trkpt>
      <trkpt lat="44.81292" lon="5.16523">
        <ele>722</ele>
        <time>2021-08-26T18:36:01+02:00</time>
      </trkpt>
      <trkpt lat="44.81268" lon="5.16529">
        <ele>720</ele>
        <time>2021-08-26T18:36:06+02:00</time>
      </trkpt>
      <trkpt lat="44.81255" lon="5.16533">
        <ele>718</ele>
        <time>2021-08-26T18:36:11+02:00</time>
      </trkpt>
      <trkpt lat="44.81246" lon="5.16532">
        <ele>717</ele>
        <time>2021-08-26T18:36:16+02:00</time>
      </trkpt>
      <trkpt lat="44.81237" lon="5.16544">
        <ele>716</ele>
        <time>2021-08-26T18:36:21+02:00</time>
      </trkpt>
      <trkpt lat="44.81223" lon="5.16565">
        <ele>715</ele>
        <time>2021-08-26T18:36:26+02:00</time>
      </trkpt>
      <trkpt lat="44.81213" lon="5.16582">
        <ele>715</ele>
        <time>2021-08-26T18:36:31+02:00</time>
      </trkpt>
      <trkpt lat="44.81188" lon="5.16607">
        <ele>710</ele>
        <time>2021-08-26T18:36:36+02:00</time>
      </trkpt>
      <trkpt lat="44.81175" lon="5.16622">
        <ele>707</ele>
        <time>2021-08-26T18:36:41+02:00</time>
      </trkpt>
      <trkpt lat="44.81162" lon="5.16655">
        <ele>704</ele>
        <time>2021-08-26T18:36:46+02:00</time>
      </trkpt>
      <trkpt lat="44.81156" lon="5.1668">
        <ele>702</ele>
        <time>2021-08-26T18:36:51+02:00</time>
      </trkpt>
      <trkpt lat="44.81146" lon="5.16705">
        <ele>699</ele>
        <time>2021-08-26T18:36:56+02:00</time>
      </trkpt>
      <trkpt lat="44.81134" lon="5.16734">
        <ele>696</ele>
        <time>2021-08-26T18:37:01+02:00</time>
      </trkpt>
      <trkpt lat="44.81111" lon="5.16743">
        <ele>692</ele>
        <time>2021-08-26T18:37:06+02:00</time>
      </trkpt>
      <trkpt lat="44.81082" lon="5.16756">
        <ele>688</ele>
        <time>2021-08-26T18:37:11+02:00</time>
      </trkpt>
      <trkpt lat="44.81047" lon="5.16766">
        <ele>686</ele>
        <time>2021-08-26T18:37:16+02:00</time>
      </trkpt>
      <trkpt lat="44.81034" lon="5.16766">
        <ele>685</ele>
        <time>2021-08-26T18:37:21+02:00</time>
      </trkpt>
      <trkpt lat="44.81022" lon="5.16771">
        <ele>684</ele>
        <time>2021-08-26T18:37:26+02:00</time>
      </trkpt>
      <trkpt lat="44.81008" lon="5.16781">
        <ele>684</ele>
        <time>2021-08-26T18:37:31+02:00</time>
      </trkpt>
      <trkpt lat="44.80992" lon="5.16778">
        <ele>684</ele>
        <time>2021-08-26T18:37:36+02:00</time>
      </trkpt>
      <trkpt lat="44.80977" lon="5.16773">
        <ele>684</ele>
        <time>2021-08-26T18:37:41+02:00</time>
      </trkpt>
      <trkpt lat="44.80968" lon="5.16756">
        <ele>683</ele>
        <time>2021-08-26T18:37:46+02:00</time>
      </trkpt>
      <trkpt lat="44.80948" lon="5.16792">
        <ele>686</ele>
        <time>2021-08-26T18:37:51+02:00</time>
      </trkpt>
      <trkpt lat="44.80913" lon="5.16826">
        <ele>689</ele>
        <time>2021-08-26T18:37:56+02:00</time>
      </trkpt>
      <trkpt lat="44.8087" lon="5.16882">
        <ele>693</ele>
        <time>2021-08-26T18:38:01+02:00</time>
      </trkpt>
      <trkpt lat="44.80863" lon="5.16929">
        <ele>693</ele>
        <time>2021-08-26T18:38:06+02:00</time>
      </trkpt>
      <trkpt lat="44.80863" lon="5.16983">
        <ele>691</ele>
        <time>2021-08-26T18:38:11+02:00</time>
      </trkpt>
      <trkpt lat="44.8085" lon="5.17019">
        <ele>683</ele>
        <time>2021-08-26T18:38:16+02:00</time>
      </trkpt>
      <trkpt lat="44.80846" lon="5.17056">
        <ele>673</ele>
        <time>2021-08-26T18:38:21+02:00</time>
      </trkpt>
      <trkpt lat="44.80856" lon="5.17084">
        <ele>670</ele>
        <time>2021-08-26T18:38:26+02:00</time>
      </trkpt>
      <trkpt lat="44.80843" lon="5.17084">
        <ele>665</ele>
        <time>2021-08-26T18:38:31+02:00</time>
      </trkpt>
      <trkpt lat="44.80814" lon="5.17062">
        <ele>666</ele>
        <time>2021-08-26T18:38:36+02:00</time>
      </trkpt>
      <trkpt lat="44.80783" lon="5.17064">
        <ele>662</ele>
        <time>2021-08-26T18:38:41+02:00</time>
      </trkpt>
      <trkpt lat="44.80725" lon="5.17094">
        <ele>641</ele>
        <time>2021-08-26T18:38:46+02:00</time>
      </trkpt>
      <trkpt lat="44.80777" lon="5.17114">
        <ele>639</ele>
        <time>2021-08-26T18:38:51+02:00</time>
      </trkpt>
      <trkpt lat="44.80794" lon="5.17142">
        <ele>629</ele>
        <time>2021-08-26T18:38:56+02:00</time>
      </trkpt>
      <trkpt lat="44.80759" lon="5.17142">
        <ele>623</ele>
        <time>2021-08-26T18:39:01+02:00</time>
      </trkpt>
      <trkpt lat="44.80715" lon="5.17163">
        <ele>608</ele>
        <time>2021-08-26T18:39:06+02:00</time>
      </trkpt>
      <trkpt lat="44.80646" lon="5.17208">
        <ele>579</ele>
        <time>2021-08-26T18:39:11+02:00</time>
      </trkpt>
      <trkpt lat="44.80662" lon="5.17225">
        <ele>576</ele>
        <time>2021-08-26T18:39:16+02:00</time>
      </trkpt>
      <trkpt lat="44.8064" lon="5.17253">
        <ele>561</ele>
        <time>2021-08-26T18:39:21+02:00</time>
      </trkpt>
      <trkpt lat="44.80642" lon="5.1727">
        <ele>553</ele>
        <time>2021-08-26T18:39:26+02:00</time>
      </trkpt>
      <trkpt lat="44.8064" lon="5.17288">
        <ele>546</ele>
        <time>2021-08-26T18:39:31+02:00</time>
      </trkpt>
      <trkpt lat="44.8064" lon="5.173">
        <ele>540</ele>
        <time>2021-08-26T18:39:36+02:00</time>
      </trkpt>
      <trkpt lat="44.80631" lon="5.17324">
        <ele>529</ele>
        <time>2021-08-26T18:39:41+02:00</time>
      </trkpt>
      <trkpt lat="44.80613" lon="5.17339">
        <ele>522</ele>
        <time>2021-08-26T18:39:46+02:00</time>
      </trkpt>
      <trkpt lat="44.80573" lon="5.1732">
        <ele>522</ele>
        <time>2021-08-26T18:39:51+02:00</time>
      </trkpt>
      <trkpt lat="44.8054" lon="5.173">
        <ele>515</ele>
        <time>2021-08-26T18:39:56+02:00</time>
      </trkpt>
      <trkpt lat="44.80483" lon="5.17313">
        <ele>486</ele>
        <time>2021-08-26T18:40:01+02:00</time>
      </trkpt>
      <trkpt lat="44.80458" lon="5.17309">
        <ele>474</ele>
        <time>2021-08-26T18:40:06+02:00</time>
      </trkpt>
      <trkpt lat="44.80423" lon="5.1729">
        <ele>462</ele>
        <time>2021-08-26T18:40:11+02:00</time>
      </trkpt>
      <trkpt lat="44.80389" lon="5.17255">
        <ele>453</ele>
        <time>2021-08-26T18:40:16+02:00</time>
      </trkpt>
      <trkpt lat="44.80389" lon="5.17298">
        <ele>442</ele>
        <time>2021-08-26T18:40:21+02:00</time>
      </trkpt>
      <trkpt lat="44.80403" lon="5.1735">
        <ele>433</ele>
        <time>2021-08-26T18:40:26+02:00</time>
      </trkpt>
      <trkpt lat="44.80435" lon="5.17391">
        <ele>432</ele>
        <time>2021-08-26T18:40:31+02:00</time>
      </trkpt>
      <trkpt lat="44.80456" lon="5.17414">
        <ele>434</ele>
        <time>2021-08-26T18:40:36+02:00</time>
      </trkpt>
      <trkpt lat="44.80477" lon="5.17438">
        <ele>437</ele>
        <time>2021-08-26T18:40:41+02:00</time>
      </trkpt>
      <trkpt lat="44.80485" lon="5.17464">
        <ele>431</ele>
        <time>2021-08-26T18:40:46+02:00</time>
      </trkpt>
      <trkpt lat="44.80491" lon="5.17493">
        <ele>423</ele>
        <time>2021-08-26T18:40:51+02:00</time>
      </trkpt>
      <trkpt lat="44.80495" lon="5.17529">
        <ele>416</ele>
        <time>2021-08-26T18:40:56+02:00</time>
      </trkpt>
      <trkpt lat="44.80489" lon="5.17561">
        <ele>410</ele>
        <time>2021-08-26T18:41:01+02:00</time>
      </trkpt>
      <trkpt lat="44.80533" lon="5.17593">
        <ele>412</ele>
        <time>2021-08-26T18:41:06+02:00</time>
      </trkpt>
      <trkpt lat="44.80554" lon="5.17602">
        <ele>414</ele>
        <time>2021-08-26T18:41:11+02:00</time>
      </trkpt>
      <trkpt lat="44.80562" lon="5.17627">
        <ele>413</ele>
        <time>2021-08-26T18:41:16+02:00</time>
      </trkpt>
      <trkpt lat="44.80579" lon="5.17649">
        <ele>411</ele>
        <time>2021-08-26T18:41:21+02:00</time>
      </trkpt>
      <trkpt lat="44.806" lon="5.17679">
        <ele>414</ele>
        <time>2021-08-26T18:41:26+02:00</time>
      </trkpt>
      <trkpt lat="44.80618" lon="5.17698">
        <ele>421</ele>
        <time>2021-08-26T18:41:31+02:00</time>
      </trkpt>
      <trkpt lat="44.80639" lon="5.17694">
        <ele>418</ele>
        <time>2021-08-26T18:41:36+02:00</time>
      </trkpt>
      <trkpt lat="44.80664" lon="5.1767">
        <ele>410</ele>
        <time>2021-08-26T18:41:41+02:00</time>
      </trkpt>
      <trkpt lat="44.80694" lon="5.17647">
        <ele>413</ele>
        <time>2021-08-26T18:41:46+02:00</time>
      </trkpt>
      <trkpt lat="44.80726" lon="5.17604">
        <ele>414</ele>
        <time>2021-08-26T18:41:51+02:00</time>
      </trkpt>
      <trkpt lat="44.80764" lon="5.17578">
        <ele>417</ele>
        <time>2021-08-26T18:41:56+02:00</time>
      </trkpt>
      <trkpt lat="44.80793" lon="5.1758">
        <ele>421</ele>
        <time>2021-08-26T18:42:01+02:00</time>
      </trkpt>
      <trkpt lat="44.80815" lon="5.17599">
        <ele>422</ele>
        <time>2021-08-26T18:42:06+02:00</time>
      </trkpt>
      <trkpt lat="44.80815" lon="5.17627">
        <ele>420</ele>
        <time>2021-08-26T18:42:11+02:00</time>
      </trkpt>
      <trkpt lat="44.80808" lon="5.17659">
        <ele>417</ele>
        <time>2021-08-26T18:42:16+02:00</time>
      </trkpt>
      <trkpt lat="44.80805" lon="5.17683">
        <ele>418</ele>
        <time>2021-08-26T18:42:21+02:00</time>
      </trkpt>
      <trkpt lat="44.80801" lon="5.17705">
        <ele>419</ele>
        <time>2021-08-26T18:42:26+02:00</time>
      </trkpt>
      <trkpt lat="44.80793" lon="5.17724">
        <ele>421</ele>
        <time>2021-08-26T18:42:31+02:00</time>
      </trkpt>
      <trkpt lat="44.80789" lon="5.17756">
        <ele>426</ele>
        <time>2021-08-26T18:42:36+02:00</time>
      </trkpt>
      <trkpt lat="44.80804" lon="5.17801">
        <ele>431</ele>
        <time>2021-08-26T18:42:41+02:00</time>
      </trkpt>
      <trkpt lat="44.80828" lon="5.17825">
        <ele>423</ele>
        <time>2021-08-26T18:42:46+02:00</time>
      </trkpt>
      <trkpt lat="44.80845" lon="5.17833">
        <ele>420</ele>
        <time>2021-08-26T18:42:51+02:00</time>
      </trkpt>
      <trkpt lat="44.80874" lon="5.17829">
        <ele>417</ele>
        <time>2021-08-26T18:42:56+02:00</time>
      </trkpt>
      <trkpt lat="44.809" lon="5.17833">
        <ele>413</ele>
        <time>2021-08-26T18:43:01+02:00</time>
      </trkpt>
      <trkpt lat="44.80907" lon="5.17857">
        <ele>419</ele>
        <time>2021-08-26T18:43:06+02:00</time>
      </trkpt>
      <trkpt lat="44.80929" lon="5.17874">
        <ele>422</ele>
        <time>2021-08-26T18:43:11+02:00</time>
      </trkpt>
      <trkpt lat="44.80947" lon="5.17874">
        <ele>422</ele>
        <time>2021-08-26T18:43:16+02:00</time>
      </trkpt>
      <trkpt lat="44.80968" lon="5.17865">
        <ele>421</ele>
        <time>2021-08-26T18:43:21+02:00</time>
      </trkpt>
      <trkpt lat="44.80977" lon="5.17863">
        <ele>422</ele>
        <time>2021-08-26T18:43:26+02:00</time>
      </trkpt>
      <trkpt lat="44.80993" lon="5.17883">
        <ele>421</ele>
        <time>2021-08-26T18:43:31+02:00</time>
      </trkpt>
      <trkpt lat="44.81008" lon="5.17919">
        <ele>419</ele>
        <time>2021-08-26T18:43:36+02:00</time>
      </trkpt>
      <trkpt lat="44.81032" lon="5.17973">
        <ele>428</ele>
        <time>2021-08-26T18:43:41+02:00</time>
      </trkpt>
      <trkpt lat="44.81046" lon="5.1802">
        <ele>434</ele>
        <time>2021-08-26T18:43:46+02:00</time>
      </trkpt>
      <trkpt lat="44.81063" lon="5.18048">
        <ele>434</ele>
        <time>2021-08-26T18:43:51+02:00</time>
      </trkpt>
      <trkpt lat="44.81096" lon="5.18054">
        <ele>427</ele>
        <time>2021-08-26T18:43:56+02:00</time>
      </trkpt>
      <trkpt lat="44.81125" lon="5.18041">
        <ele>425</ele>
        <time>2021-08-26T18:44:01+02:00</time>
      </trkpt>
      <trkpt lat="44.81154" lon="5.18029">
        <ele>427</ele>
        <time>2021-08-26T18:44:06+02:00</time>
      </trkpt>
      <trkpt lat="44.81165" lon="5.18031">
        <ele>427</ele>
        <time>2021-08-26T18:44:11+02:00</time>
      </trkpt>
      <trkpt lat="44.81191" lon="5.18052">
        <ele>432</ele>
        <time>2021-08-26T18:44:16+02:00</time>
      </trkpt>
      <trkpt lat="44.81206" lon="5.1811">
        <ele>432</ele>
        <time>2021-08-26T18:44:21+02:00</time>
      </trkpt>
      <trkpt lat="44.81224" lon="5.18164">
        <ele>432</ele>
        <time>2021-08-26T18:44:26+02:00</time>
      </trkpt>
      <trkpt lat="44.81253" lon="5.1822">
        <ele>430</ele>
        <time>2021-08-26T18:44:31+02:00</time>
      </trkpt>
      <trkpt lat="44.81294" lon="5.18329">
        <ele>441</ele>
        <time>2021-08-26T18:44:36+02:00</time>
      </trkpt>
      <trkpt lat="44.81331" lon="5.18355">
        <ele>430</ele>
        <time>2021-08-26T18:44:41+02:00</time>
      </trkpt>
      <trkpt lat="44.81352" lon="5.18372">
        <ele>434</ele>
        <time>2021-08-26T18:44:46+02:00</time>
      </trkpt>
      <trkpt lat="44.81364" lon="5.18383">
        <ele>435</ele>
        <time>2021-08-26T18:44:51+02:00</time>
      </trkpt>
      <trkpt lat="44.81367" lon="5.18387">
        <ele>435</ele>
        <time>2021-08-26T18:44:56+02:00</time>
      </trkpt>
      <trkpt lat="44.81373" lon="5.18406">
        <ele>435</ele>
        <time>2021-08-26T18:45:01+02:00</time>
      </trkpt>
      <trkpt lat="44.81378" lon="5.18436">
        <ele>436</ele>
        <time>2021-08-26T18:45:06+02:00</time>
      </trkpt>
      <trkpt lat="44.81384" lon="5.18453">
        <ele>437</ele>
        <time>2021-08-26T18:45:11+02:00</time>
      </trkpt>
      <trkpt lat="44.81402" lon="5.18479">
        <ele>434</ele>
        <time>2021-08-26T18:45:16+02:00</time>
      </trkpt>
      <trkpt lat="44.81417" lon="5.18511">
        <ele>431</ele>
        <time>2021-08-26T18:45:21+02:00</time>
      </trkpt>
      <trkpt lat="44.81431" lon="5.18541">
        <ele>437</ele>
        <time>2021-08-26T18:45:26+02:00</time>
      </trkpt>
      <trkpt lat="44.81434" lon="5.18576">
        <ele>439</ele>
        <time>2021-08-26T18:45:31+02:00</time>
      </trkpt>
      <trkpt lat="44.81442" lon="5.18601">
        <ele>441</ele>
        <time>2021-08-26T18:45:36+02:00</time>
      </trkpt>
      <trkpt lat="44.81454" lon="5.18621">
        <ele>443</ele>
        <time>2021-08-26T18:45:41+02:00</time>
      </trkpt>
      <trkpt lat="44.81468" lon="5.18657">
        <ele>442</ele>
        <time>2021-08-26T18:45:46+02:00</time>
      </trkpt>
      <trkpt lat="44.81484" lon="5.18677">
        <ele>439</ele>
        <time>2021-08-26T18:45:51+02:00</time>
      </trkpt>
      <trkpt lat="44.81513" lon="5.18713">
        <ele>439</ele>
        <time>2021-08-26T18:45:56+02:00</time>
      </trkpt>
      <trkpt lat="44.81548" lon="5.18743">
        <ele>442</ele>
        <time>2021-08-26T18:46:01+02:00</time>
      </trkpt>
      <trkpt lat="44.81567" lon="5.18797">
        <ele>441</ele>
        <time>2021-08-26T18:46:06+02:00</time>
      </trkpt>
      <trkpt lat="44.81589" lon="5.18857">
        <ele>439</ele>
        <time>2021-08-26T18:46:11+02:00</time>
      </trkpt>
      <trkpt lat="44.81606" lon="5.1891">
        <ele>446</ele>
        <time>2021-08-26T18:46:16+02:00</time>
      </trkpt>
      <trkpt lat="44.81624" lon="5.18943">
        <ele>456</ele>
        <time>2021-08-26T18:46:21+02:00</time>
      </trkpt>
      <trkpt lat="44.81637" lon="5.18956">
        <ele>459</ele>
        <time>2021-08-26T18:46:26+02:00</time>
      </trkpt>
      <trkpt lat="44.81659" lon="5.18973">
        <ele>461</ele>
        <time>2021-08-26T18:46:31+02:00</time>
      </trkpt>
      <trkpt lat="44.81723" lon="5.1893">
        <ele>444</ele>
        <time>2021-08-26T18:46:36+02:00</time>
      </trkpt>
      <trkpt lat="44.81749" lon="5.18913">
        <ele>440</ele>
        <time>2021-08-26T18:46:41+02:00</time>
      </trkpt>
      <trkpt lat="44.81774" lon="5.18906">
        <ele>443</ele>
        <time>2021-08-26T18:46:46+02:00</time>
      </trkpt>
      <trkpt lat="44.81793" lon="5.1891">
        <ele>444</ele>
        <time>2021-08-26T18:46:51+02:00</time>
      </trkpt>
      <trkpt lat="44.81816" lon="5.18938">
        <ele>446</ele>
        <time>2021-08-26T18:46:56+02:00</time>
      </trkpt>
      <trkpt lat="44.81833" lon="5.18966">
        <ele>445</ele>
        <time>2021-08-26T18:47:01+02:00</time>
      </trkpt>
      <trkpt lat="44.81857" lon="5.19001">
        <ele>447</ele>
        <time>2021-08-26T18:47:06+02:00</time>
      </trkpt>
      <trkpt lat="44.81888" lon="5.19035">
        <ele>454</ele>
        <time>2021-08-26T18:47:11+02:00</time>
      </trkpt>
      <trkpt lat="44.8192" lon="5.19056">
        <ele>452</ele>
        <time>2021-08-26T18:47:16+02:00</time>
      </trkpt>
      <trkpt lat="44.81947" lon="5.19074">
        <ele>452</ele>
        <time>2021-08-26T18:47:21+02:00</time>
      </trkpt>
      <trkpt lat="44.81971" lon="5.19078">
        <ele>452</ele>
        <time>2021-08-26T18:47:26+02:00</time>
      </trkpt>
      <trkpt lat="44.81982" lon="5.19086">
        <ele>451</ele>
        <time>2021-08-26T18:47:31+02:00</time>
      </trkpt>
      <trkpt lat="44.81994" lon="5.19116">
        <ele>452</ele>
        <time>2021-08-26T18:47:36+02:00</time>
      </trkpt>
      <trkpt lat="44.82012" lon="5.19147">
        <ele>455</ele>
        <time>2021-08-26T18:47:41+02:00</time>
      </trkpt>
      <trkpt lat="44.82026" lon="5.19181">
        <ele>458</ele>
        <time>2021-08-26T18:47:46+02:00</time>
      </trkpt>
      <trkpt lat="44.82037" lon="5.19207">
        <ele>460</ele>
        <time>2021-08-26T18:47:51+02:00</time>
      </trkpt>
      <trkpt lat="44.82046" lon="5.19224">
        <ele>459</ele>
        <time>2021-08-26T18:47:56+02:00</time>
      </trkpt>
      <trkpt lat="44.82087" lon="5.19254">
        <ele>452</ele>
        <time>2021-08-26T18:48:01+02:00</time>
      </trkpt>
      <trkpt lat="44.82111" lon="5.19303">
        <ele>457</ele>
        <time>2021-08-26T18:48:06+02:00</time>
      </trkpt>
      <trkpt lat="44.82133" lon="5.19337">
        <ele>457</ele>
        <time>2021-08-26T18:48:11+02:00</time>
      </trkpt>
      <trkpt lat="44.82154" lon="5.19359">
        <ele>458</ele>
        <time>2021-08-26T18:48:16+02:00</time>
      </trkpt>
      <trkpt lat="44.82171" lon="5.1938">
        <ele>458</ele>
        <time>2021-08-26T18:48:21+02:00</time>
      </trkpt>
      <trkpt lat="44.822" lon="5.19398">
        <ele>465</ele>
        <time>2021-08-26T18:48:26+02:00</time>
      </trkpt>
      <trkpt lat="44.82229" lon="5.19428">
        <ele>469</ele>
        <time>2021-08-26T18:48:31+02:00</time>
      </trkpt>
      <trkpt lat="44.82251" lon="5.19494">
        <ele>462</ele>
        <time>2021-08-26T18:48:36+02:00</time>
      </trkpt>
      <trkpt lat="44.82271" lon="5.19541">
        <ele>460</ele>
        <time>2021-08-26T18:48:41+02:00</time>
      </trkpt>
      <trkpt lat="44.82297" lon="5.1958">
        <ele>457</ele>
        <time>2021-08-26T18:48:46+02:00</time>
      </trkpt>
      <trkpt lat="44.82346" lon="5.19548">
        <ele>464</ele>
        <time>2021-08-26T18:48:51+02:00</time>
      </trkpt>
      <trkpt lat="44.82363" lon="5.19554">
        <ele>464</ele>
        <time>2021-08-26T18:48:56+02:00</time>
      </trkpt>
      <trkpt lat="44.8237" lon="5.19518">
        <ele>468</ele>
        <time>2021-08-26T18:49:01+02:00</time>
      </trkpt>
      <trkpt lat="44.82379" lon="5.19503">
        <ele>469</ele>
        <time>2021-08-26T18:49:06+02:00</time>
      </trkpt>
      <trkpt lat="44.82402" lon="5.19516">
        <ele>467</ele>
        <time>2021-08-26T18:49:11+02:00</time>
      </trkpt>
      <trkpt lat="44.82417" lon="5.19541">
        <ele>465</ele>
        <time>2021-08-26T18:49:16+02:00</time>
      </trkpt>
      <trkpt lat="44.82445" lon="5.19578">
        <ele>465</ele>
        <time>2021-08-26T18:49:21+02:00</time>
      </trkpt>
      <trkpt lat="44.82461" lon="5.19608">
        <ele>472</ele>
        <time>2021-08-26T18:49:26+02:00</time>
      </trkpt>
      <trkpt lat="44.82492" lon="5.19625">
        <ele>477</ele>
        <time>2021-08-26T18:49:31+02:00</time>
      </trkpt>
      <trkpt lat="44.82522" lon="5.19629">
        <ele>480</ele>
        <time>2021-08-26T18:49:36+02:00</time>
      </trkpt>
      <trkpt lat="44.8256" lon="5.19606">
        <ele>481</ele>
        <time>2021-08-26T18:49:41+02:00</time>
      </trkpt>
      <trkpt lat="44.82601" lon="5.19567">
        <ele>495</ele>
        <time>2021-08-26T18:49:46+02:00</time>
      </trkpt>
      <trkpt lat="44.82626" lon="5.19522">
        <ele>504</ele>
        <time>2021-08-26T18:49:51+02:00</time>
      </trkpt>
      <trkpt lat="44.8264" lon="5.19498">
        <ele>505</ele>
        <time>2021-08-26T18:49:56+02:00</time>
      </trkpt>
      <trkpt lat="44.82642" lon="5.19461">
        <ele>508</ele>
        <time>2021-08-26T18:50:01+02:00</time>
      </trkpt>
      <trkpt lat="44.82644" lon="5.19439">
        <ele>508</ele>
        <time>2021-08-26T18:50:06+02:00</time>
      </trkpt>
      <trkpt lat="44.82651" lon="5.1941">
        <ele>506</ele>
        <time>2021-08-26T18:50:11+02:00</time>
      </trkpt>
      <trkpt lat="44.8267" lon="5.19399">
        <ele>501</ele>
        <time>2021-08-26T18:50:16+02:00</time>
      </trkpt>
      <trkpt lat="44.8269" lon="5.19392">
        <ele>507</ele>
        <time>2021-08-26T18:50:21+02:00</time>
      </trkpt>
      <trkpt lat="44.82684" lon="5.19379">
        <ele>509</ele>
        <time>2021-08-26T18:50:26+02:00</time>
      </trkpt>
      <trkpt lat="44.82688" lon="5.19357">
        <ele>514</ele>
        <time>2021-08-26T18:50:31+02:00</time>
      </trkpt>
      <trkpt lat="44.82696" lon="5.19342">
        <ele>518</ele>
        <time>2021-08-26T18:50:36+02:00</time>
      </trkpt>
      <trkpt lat="44.827" lon="5.19318">
        <ele>521</ele>
        <time>2021-08-26T18:50:41+02:00</time>
      </trkpt>
      <trkpt lat="44.82703" lon="5.19288">
        <ele>523</ele>
        <time>2021-08-26T18:50:46+02:00</time>
      </trkpt>
      <trkpt lat="44.82707" lon="5.19259">
        <ele>523</ele>
        <time>2021-08-26T18:50:51+02:00</time>
      </trkpt>
      <trkpt lat="44.82711" lon="5.19241">
        <ele>525</ele>
        <time>2021-08-26T18:50:56+02:00</time>
      </trkpt>
      <trkpt lat="44.82717" lon="5.19231">
        <ele>526</ele>
        <time>2021-08-26T18:51:01+02:00</time>
      </trkpt>
      <trkpt lat="44.82748" lon="5.19239">
        <ele>520</ele>
        <time>2021-08-26T18:51:06+02:00</time>
      </trkpt>
      <trkpt lat="44.82757" lon="5.19245">
        <ele>520</ele>
        <time>2021-08-26T18:51:11+02:00</time>
      </trkpt>
      <trkpt lat="44.82733" lon="5.19236">
        <ele>523</ele>
        <time>2021-08-26T18:51:16+02:00</time>
      </trkpt>
      <trkpt lat="44.82716" lon="5.19237">
        <ele>525</ele>
        <time>2021-08-26T18:51:21+02:00</time>
      </trkpt>
      <trkpt lat="44.82706" lon="5.19255">
        <ele>524</ele>
        <time>2021-08-26T18:51:26+02:00</time>
      </trkpt>
      <trkpt lat="44.82702" lon="5.19297">
        <ele>522</ele>
        <time>2021-08-26T18:51:31+02:00</time>
      </trkpt>
      <trkpt lat="44.82697" lon="5.1933">
        <ele>520</ele>
        <time>2021-08-26T18:51:36+02:00</time>
      </trkpt>
      <trkpt lat="44.82688" lon="5.19357">
        <ele>514</ele>
        <time>2021-08-26T18:51:41+02:00</time>
      </trkpt>
      <trkpt lat="44.82684" lon="5.19381">
        <ele>508</ele>
        <time>2021-08-26T18:51:46+02:00</time>
      </trkpt>
      <trkpt lat="44.82691" lon="5.19395">
        <ele>507</ele>
        <time>2021-08-26T18:51:51+02:00</time>
      </trkpt>
      <trkpt lat="44.82699" lon="5.19414">
        <ele>506</ele>
        <time>2021-08-26T18:51:56+02:00</time>
      </trkpt>
      <trkpt lat="44.82699" lon="5.19429">
        <ele>507</ele>
        <time>2021-08-26T18:52:01+02:00</time>
      </trkpt>
      <trkpt lat="44.82709" lon="5.1944">
        <ele>511</ele>
        <time>2021-08-26T18:52:06+02:00</time>
      </trkpt>
      <trkpt lat="44.82716" lon="5.19456">
        <ele>515</ele>
        <time>2021-08-26T18:52:11+02:00</time>
      </trkpt>
      <trkpt lat="44.82726" lon="5.19431">
        <ele>516</ele>
        <time>2021-08-26T18:52:16+02:00</time>
      </trkpt>
      <trkpt lat="44.82732" lon="5.19451">
        <ele>520</ele>
        <time>2021-08-26T18:52:21+02:00</time>
      </trkpt>
      <trkpt lat="44.82739" lon="5.19446">
        <ele>521</ele>
        <time>2021-08-26T18:52:26+02:00</time>
      </trkpt>
      <trkpt lat="44.82745" lon="5.19469">
        <ele>525</ele>
        <time>2021-08-26T18:52:31+02:00</time>
      </trkpt>
      <trkpt lat="44.8275" lon="5.19459">
        <ele>526</ele>
        <time>2021-08-26T18:52:36+02:00</time>
      </trkpt>
      <trkpt lat="44.82752" lon="5.1945">
        <ele>526</ele>
        <time>2021-08-26T18:52:41+02:00</time>
      </trkpt>
      <trkpt lat="44.82762" lon="5.19467">
        <ele>533</ele>
        <time>2021-08-26T18:52:46+02:00</time>
      </trkpt>
      <trkpt lat="44.82768" lon="5.19443">
        <ele>534</ele>
        <time>2021-08-26T18:52:51+02:00</time>
      </trkpt>
      <trkpt lat="44.8278" lon="5.19473">
        <ele>543</ele>
        <time>2021-08-26T18:52:56+02:00</time>
      </trkpt>
      <trkpt lat="44.82782" lon="5.19447">
        <ele>542</ele>
        <time>2021-08-26T18:53:01+02:00</time>
      </trkpt>
      <trkpt lat="44.8278" lon="5.19423">
        <ele>539</ele>
        <time>2021-08-26T18:53:06+02:00</time>
      </trkpt>
      <trkpt lat="44.82767" lon="5.19396">
        <ele>531</ele>
        <time>2021-08-26T18:53:11+02:00</time>
      </trkpt>
      <trkpt lat="44.8276" lon="5.19384">
        <ele>527</ele>
        <time>2021-08-26T18:53:16+02:00</time>
      </trkpt>
      <trkpt lat="44.82761" lon="5.19365">
        <ele>528</ele>
        <time>2021-08-26T18:53:21+02:00</time>
      </trkpt>
      <trkpt lat="44.8277" lon="5.19357">
        <ele>531</ele>
        <time>2021-08-26T18:53:26+02:00</time>
      </trkpt>
      <trkpt lat="44.82771" lon="5.19371">
        <ele>532</ele>
        <time>2021-08-26T18:53:31+02:00</time>
      </trkpt>
      <trkpt lat="44.82791" lon="5.19388">
        <ele>542</ele>
        <time>2021-08-26T18:53:36+02:00</time>
      </trkpt>
      <trkpt lat="44.82811" lon="5.19409">
        <ele>554</ele>
        <time>2021-08-26T18:53:41+02:00</time>
      </trkpt>
      <trkpt lat="44.82823" lon="5.19443">
        <ele>564</ele>
        <time>2021-08-26T18:53:46+02:00</time>
      </trkpt>
      <trkpt lat="44.82825" lon="5.19482">
        <ele>567</ele>
        <time>2021-08-26T18:53:51+02:00</time>
      </trkpt>
      <trkpt lat="44.82823" lon="5.19504">
        <ele>567</ele>
        <time>2021-08-26T18:53:56+02:00</time>
      </trkpt>
      <trkpt lat="44.82811" lon="5.19525">
        <ele>566</ele>
        <time>2021-08-26T18:54:01+02:00</time>
      </trkpt>
      <trkpt lat="44.82794" lon="5.19553">
        <ele>565</ele>
        <time>2021-08-26T18:54:06+02:00</time>
      </trkpt>
      <trkpt lat="44.82766" lon="5.19587">
        <ele>564</ele>
        <time>2021-08-26T18:54:11+02:00</time>
      </trkpt>
      <trkpt lat="44.8277" lon="5.19589">
        <ele>566</ele>
        <time>2021-08-26T18:54:16+02:00</time>
      </trkpt>
      <trkpt lat="44.82801" lon="5.1957">
        <ele>571</ele>
        <time>2021-08-26T18:54:21+02:00</time>
      </trkpt>
      <trkpt lat="44.82823" lon="5.19551">
        <ele>575</ele>
        <time>2021-08-26T18:54:26+02:00</time>
      </trkpt>
      <trkpt lat="44.82848" lon="5.19523">
        <ele>579</ele>
        <time>2021-08-26T18:54:31+02:00</time>
      </trkpt>
      <trkpt lat="44.82861" lon="5.19515">
        <ele>581</ele>
        <time>2021-08-26T18:54:36+02:00</time>
      </trkpt>
      <trkpt lat="44.8287" lon="5.1951">
        <ele>583</ele>
        <time>2021-08-26T18:54:41+02:00</time>
      </trkpt>
      <trkpt lat="44.82906" lon="5.19526">
        <ele>594</ele>
        <time>2021-08-26T18:54:46+02:00</time>
      </trkpt>
      <trkpt lat="44.82933" lon="5.19518">
        <ele>600</ele>
        <time>2021-08-26T18:54:51+02:00</time>
      </trkpt>
      <trkpt lat="44.82974" lon="5.19464">
        <ele>603</ele>
        <time>2021-08-26T18:54:56+02:00</time>
      </trkpt>
      <trkpt lat="44.82993" lon="5.19425">
        <ele>601</ele>
        <time>2021-08-26T18:55:01+02:00</time>
      </trkpt>
      <trkpt lat="44.83015" lon="5.19404">
        <ele>598</ele>
        <time>2021-08-26T18:55:06+02:00</time>
      </trkpt>
      <trkpt lat="44.83041" lon="5.19413">
        <ele>602</ele>
        <time>2021-08-26T18:55:11+02:00</time>
      </trkpt>
      <trkpt lat="44.83105" lon="5.19395">
        <ele>602</ele>
        <time>2021-08-26T18:55:16+02:00</time>
      </trkpt>
      <trkpt lat="44.83155" lon="5.19406">
        <ele>608</ele>
        <time>2021-08-26T18:55:21+02:00</time>
      </trkpt>
      <trkpt lat="44.83198" lon="5.1937">
        <ele>608</ele>
        <time>2021-08-26T18:55:26+02:00</time>
      </trkpt>
      <trkpt lat="44.83233" lon="5.19303">
        <ele>603</ele>
        <time>2021-08-26T18:55:31+02:00</time>
      </trkpt>
      <trkpt lat="44.83282" lon="5.19228">
        <ele>595</ele>
        <time>2021-08-26T18:55:36+02:00</time>
      </trkpt>
      <trkpt lat="44.83337" lon="5.19194">
        <ele>593</ele>
        <time>2021-08-26T18:55:41+02:00</time>
      </trkpt>
      <trkpt lat="44.83384" lon="5.19155">
        <ele>594</ele>
        <time>2021-08-26T18:55:46+02:00</time>
      </trkpt>
      <trkpt lat="44.83405" lon="5.19119">
        <ele>588</ele>
        <time>2021-08-26T18:55:51+02:00</time>
      </trkpt>
      <trkpt lat="44.83417" lon="5.19084">
        <ele>578</ele>
        <time>2021-08-26T18:55:56+02:00</time>
      </trkpt>
      <trkpt lat="44.83429" lon="5.19046">
        <ele>577</ele>
        <time>2021-08-26T18:56:01+02:00</time>
      </trkpt>
      <trkpt lat="44.83493" lon="5.18968">
        <ele>575</ele>
        <time>2021-08-26T18:56:06+02:00</time>
      </trkpt>
      <trkpt lat="44.83542" lon="5.18904">
        <ele>575</ele>
        <time>2021-08-26T18:56:11+02:00</time>
      </trkpt>
      <trkpt lat="44.83585" lon="5.1884">
        <ele>570</ele>
        <time>2021-08-26T18:56:16+02:00</time>
      </trkpt>
      <trkpt lat="44.83609" lon="5.18803">
        <ele>572</ele>
        <time>2021-08-26T18:56:21+02:00</time>
      </trkpt>
      <trkpt lat="44.8367" lon="5.18771">
        <ele>573</ele>
        <time>2021-08-26T18:56:26+02:00</time>
      </trkpt>
      <trkpt lat="44.83687" lon="5.18763">
        <ele>572</ele>
        <time>2021-08-26T18:56:31+02:00</time>
      </trkpt>
      <trkpt lat="44.83718" lon="5.18745">
        <ele>571</ele>
        <time>2021-08-26T18:56:36+02:00</time>
      </trkpt>
      <trkpt lat="44.83709" lon="5.18711">
        <ele>573</ele>
        <time>2021-08-26T18:56:41+02:00</time>
      </trkpt>
      <trkpt lat="44.83702" lon="5.18684">
        <ele>574</ele>
        <time>2021-08-26T18:56:46+02:00</time>
      </trkpt>
      <trkpt lat="44.83741" lon="5.1866">
        <ele>578</ele>
        <time>2021-08-26T18:56:51+02:00</time>
      </trkpt>
      <trkpt lat="44.83759" lon="5.18649">
        <ele>589</ele>
        <time>2021-08-26T18:56:56+02:00</time>
      </trkpt>
      <trkpt lat="44.83785" lon="5.18655">
        <ele>602</ele>
        <time>2021-08-26T18:57:01+02:00</time>
      </trkpt>
      <trkpt lat="44.838" lon="5.18673">
        <ele>600</ele>
        <time>2021-08-26T18:57:06+02:00</time>
      </trkpt>
      <trkpt lat="44.83813" lon="5.18731">
        <ele>586</ele>
        <time>2021-08-26T18:57:11+02:00</time>
      </trkpt>
      <trkpt lat="44.83826" lon="5.18796">
        <ele>584</ele>
        <time>2021-08-26T18:57:16+02:00</time>
      </trkpt>
      <trkpt lat="44.83838" lon="5.1884">
        <ele>591</ele>
        <time>2021-08-26T18:57:21+02:00</time>
      </trkpt>
      <trkpt lat="44.83852" lon="5.1887">
        <ele>604</ele>
        <time>2021-08-26T18:57:26+02:00</time>
      </trkpt>
      <trkpt lat="44.83865" lon="5.18889">
        <ele>608</ele>
        <time>2021-08-26T18:57:31+02:00</time>
      </trkpt>
      <trkpt lat="44.83894" lon="5.18892">
        <ele>607</ele>
        <time>2021-08-26T18:57:36+02:00</time>
      </trkpt>
      <trkpt lat="44.83927" lon="5.18882">
        <ele>617</ele>
        <time>2021-08-26T18:57:41+02:00</time>
      </trkpt>
      <trkpt lat="44.83943" lon="5.18884">
        <ele>625</ele>
        <time>2021-08-26T18:57:46+02:00</time>
      </trkpt>
      <trkpt lat="44.83967" lon="5.18903">
        <ele>628</ele>
        <time>2021-08-26T18:57:51+02:00</time>
      </trkpt>
      <trkpt lat="44.84008" lon="5.18938">
        <ele>626</ele>
        <time>2021-08-26T18:57:56+02:00</time>
      </trkpt>
      <trkpt lat="44.84043" lon="5.18945">
        <ele>614</ele>
        <time>2021-08-26T18:58:01+02:00</time>
      </trkpt>
      <trkpt lat="44.84064" lon="5.18943">
        <ele>608</ele>
        <time>2021-08-26T18:58:06+02:00</time>
      </trkpt>
      <trkpt lat="44.84097" lon="5.1891">
        <ele>608</ele>
        <time>2021-08-26T18:58:11+02:00</time>
      </trkpt>
      <trkpt lat="44.84142" lon="5.1889">
        <ele>616</ele>
        <time>2021-08-26T18:58:16+02:00</time>
      </trkpt>
      <trkpt lat="44.84152" lon="5.18886">
        <ele>616</ele>
        <time>2021-08-26T18:58:21+02:00</time>
      </trkpt>
      <trkpt lat="44.84167" lon="5.18865">
        <ele>619</ele>
        <time>2021-08-26T18:58:26+02:00</time>
      </trkpt>
      <trkpt lat="44.8419" lon="5.18853">
        <ele>629</ele>
        <time>2021-08-26T18:58:31+02:00</time>
      </trkpt>
      <trkpt lat="44.84191" lon="5.18845">
        <ele>631</ele>
        <time>2021-08-26T18:58:36+02:00</time>
      </trkpt>
      <trkpt lat="44.84181" lon="5.18818">
        <ele>643</ele>
        <time>2021-08-26T18:58:41+02:00</time>
      </trkpt>
      <trkpt lat="44.84239" lon="5.18802">
        <ele>664</ele>
        <time>2021-08-26T18:58:46+02:00</time>
      </trkpt>
      <trkpt lat="44.8425" lon="5.18816">
        <ele>659</ele>
        <time>2021-08-26T18:58:51+02:00</time>
      </trkpt>
      <trkpt lat="44.84264" lon="5.18826">
        <ele>655</ele>
        <time>2021-08-26T18:58:56+02:00</time>
      </trkpt>
      <trkpt lat="44.84338" lon="5.18814">
        <ele>663</ele>
        <time>2021-08-26T18:59:01+02:00</time>
      </trkpt>
      <trkpt lat="44.84402" lon="5.18797">
        <ele>670</ele>
        <time>2021-08-26T18:59:06+02:00</time>
      </trkpt>
      <trkpt lat="44.84453" lon="5.18799">
        <ele>673</ele>
        <time>2021-08-26T18:59:11+02:00</time>
      </trkpt>
      <trkpt lat="44.84475" lon="5.18825">
        <ele>668</ele>
        <time>2021-08-26T18:59:16+02:00</time>
      </trkpt>
      <trkpt lat="44.84518" lon="5.1885">
        <ele>668</ele>
        <time>2021-08-26T18:59:21+02:00</time>
      </trkpt>
      <trkpt lat="44.8457" lon="5.1885">
        <ele>669</ele>
        <time>2021-08-26T18:59:26+02:00</time>
      </trkpt>
      <trkpt lat="44.84603" lon="5.18872">
        <ele>664</ele>
        <time>2021-08-26T18:59:31+02:00</time>
      </trkpt>
      <trkpt lat="44.84659" lon="5.18855">
        <ele>668</ele>
        <time>2021-08-26T18:59:36+02:00</time>
      </trkpt>
      <trkpt lat="44.84717" lon="5.1884">
        <ele>681</ele>
        <time>2021-08-26T18:59:41+02:00</time>
      </trkpt>
      <trkpt lat="44.84749" lon="5.18859">
        <ele>680</ele>
        <time>2021-08-26T18:59:46+02:00</time>
      </trkpt>
      <trkpt lat="44.84792" lon="5.18842">
        <ele>689</ele>
        <time>2021-08-26T18:59:51+02:00</time>
      </trkpt>
      <trkpt lat="44.85005" lon="5.18717">
        <ele>741</ele>
        <time>2021-08-26T18:59:56+02:00</time>
      </trkpt>
      <trkpt lat="44.8507" lon="5.18724">
        <ele>742</ele>
        <time>2021-08-26T19:00:01+02:00</time>
      </trkpt>
      <trkpt lat="44.85084" lon="5.18709">
        <ele>748</ele>
        <time>2021-08-26T19:00:06+02:00</time>
      </trkpt>
      <trkpt lat="44.85154" lon="5.18711">
        <ele>752</ele>
        <time>2021-08-26T19:00:11+02:00</time>
      </trkpt>
      <trkpt lat="44.85219" lon="5.18677">
        <ele>768</ele>
        <time>2021-08-26T19:00:16+02:00</time>
      </trkpt>
      <trkpt lat="44.85248" lon="5.18668">
        <ele>773</ele>
        <time>2021-08-26T19:00:21+02:00</time>
      </trkpt>
      <trkpt lat="44.85248" lon="5.18662">
        <ele>776</ele>
        <time>2021-08-26T19:00:26+02:00</time>
      </trkpt>
      <trkpt lat="44.85295" lon="5.18647">
        <ele>787</ele>
        <time>2021-08-26T19:00:31+02:00</time>
      </trkpt>
      <trkpt lat="44.85311" lon="5.1864">
        <ele>791</ele>
        <time>2021-08-26T19:00:36+02:00</time>
      </trkpt>
      <trkpt lat="44.85352" lon="5.18586">
        <ele>815</ele>
        <time>2021-08-26T19:00:41+02:00</time>
      </trkpt>
      <trkpt lat="44.85405" lon="5.18595">
        <ele>816</ele>
        <time>2021-08-26T19:00:46+02:00</time>
      </trkpt>
      <trkpt lat="44.85432" lon="5.18584">
        <ele>822</ele>
        <time>2021-08-26T19:00:51+02:00</time>
      </trkpt>
      <trkpt lat="44.8546" lon="5.18571">
        <ele>828</ele>
        <time>2021-08-26T19:00:56+02:00</time>
      </trkpt>
      <trkpt lat="44.85496" lon="5.18537">
        <ele>844</ele>
        <time>2021-08-26T19:01:01+02:00</time>
      </trkpt>
      <trkpt lat="44.85543" lon="5.18488">
        <ele>862</ele>
        <time>2021-08-26T19:01:06+02:00</time>
      </trkpt>
      <trkpt lat="44.85583" lon="5.18453">
        <ele>877</ele>
        <time>2021-08-26T19:01:11+02:00</time>
      </trkpt>
      <trkpt lat="44.8563" lon="5.18428">
        <ele>890</ele>
        <time>2021-08-26T19:01:16+02:00</time>
      </trkpt>
      <trkpt lat="44.85668" lon="5.18417">
        <ele>896</ele>
        <time>2021-08-26T19:01:21+02:00</time>
      </trkpt>
      <trkpt lat="44.85667" lon="5.18412">
        <ele>898</ele>
        <time>2021-08-26T19:01:26+02:00</time>
      </trkpt>
      <trkpt lat="44.8565" lon="5.18378">
        <ele>911</ele>
        <time>2021-08-26T19:01:31+02:00</time>
      </trkpt>
      <trkpt lat="44.85613" lon="5.18331">
        <ele>930</ele>
        <time>2021-08-26T19:01:36+02:00</time>
      </trkpt>
      <trkpt lat="44.85622" lon="5.18324">
        <ele>933</ele>
        <time>2021-08-26T19:01:41+02:00</time>
      </trkpt>
      <trkpt lat="44.8568" lon="5.18283">
        <ele>948</ele>
        <time>2021-08-26T19:01:46+02:00</time>
      </trkpt>
      <trkpt lat="44.85725" lon="5.18264">
        <ele>952</ele>
        <time>2021-08-26T19:01:51+02:00</time>
      </trkpt>
      <trkpt lat="44.85748" lon="5.18239">
        <ele>961</ele>
        <time>2021-08-26T19:01:56+02:00</time>
      </trkpt>
      <trkpt lat="44.85819" lon="5.18183">
        <ele>980</ele>
        <time>2021-08-26T19:02:01+02:00</time>
      </trkpt>
      <trkpt lat="44.85867" lon="5.18151">
        <ele>989</ele>
        <time>2021-08-26T19:02:06+02:00</time>
      </trkpt>
      <trkpt lat="44.85903" lon="5.18138">
        <ele>990</ele>
        <time>2021-08-26T19:02:11+02:00</time>
      </trkpt>
      <trkpt lat="44.85942" lon="5.1813">
        <ele>992</ele>
        <time>2021-08-26T19:02:16+02:00</time>
      </trkpt>
      <trkpt lat="44.86017" lon="5.18124">
        <ele>996</ele>
        <time>2021-08-26T19:02:21+02:00</time>
      </trkpt>
      <trkpt lat="44.85987" lon="5.18115">
        <ele>995</ele>
        <time>2021-08-26T19:02:26+02:00</time>
      </trkpt>
      <trkpt lat="44.85938" lon="5.18092">
        <ele>1000</ele>
        <time>2021-08-26T19:02:31+02:00</time>
      </trkpt>
      <trkpt lat="44.85886" lon="5.18085">
        <ele>1008</ele>
        <time>2021-08-26T19:02:36+02:00</time>
      </trkpt>
      <trkpt lat="44.85803" lon="5.18124">
        <ele>1004</ele>
        <time>2021-08-26T19:02:41+02:00</time>
      </trkpt>
      <trkpt lat="44.85714" lon="5.18167">
        <ele>993</ele>
        <time>2021-08-26T19:02:46+02:00</time>
      </trkpt>
      <trkpt lat="44.85603" lon="5.18199">
        <ele>983</ele>
        <time>2021-08-26T19:02:51+02:00</time>
      </trkpt>
      <trkpt lat="44.85555" lon="5.18199">
        <ele>982</ele>
        <time>2021-08-26T19:02:56+02:00</time>
      </trkpt>
      <trkpt lat="44.855" lon="5.18199">
        <ele>982</ele>
        <time>2021-08-26T19:03:01+02:00</time>
      </trkpt>
      <trkpt lat="44.85413" lon="5.18176">
        <ele>988</ele>
        <time>2021-08-26T19:03:06+02:00</time>
      </trkpt>
      <trkpt lat="44.85343" lon="5.18152">
        <ele>993</ele>
        <time>2021-08-26T19:03:11+02:00</time>
      </trkpt>
      <trkpt lat="44.85281" lon="5.1813">
        <ele>992</ele>
        <time>2021-08-26T19:03:16+02:00</time>
      </trkpt>
      <trkpt lat="44.85238" lon="5.18115">
        <ele>990</ele>
        <time>2021-08-26T19:03:21+02:00</time>
      </trkpt>
      <trkpt lat="44.85162" lon="5.18068">
        <ele>991</ele>
        <time>2021-08-26T19:03:26+02:00</time>
      </trkpt>
      <trkpt lat="44.8512" lon="5.18064">
        <ele>991</ele>
        <time>2021-08-26T19:03:31+02:00</time>
      </trkpt>
      <trkpt lat="44.85053" lon="5.18081">
        <ele>982</ele>
        <time>2021-08-26T19:03:36+02:00</time>
      </trkpt>
      <trkpt lat="44.84963" lon="5.18045">
        <ele>983</ele>
        <time>2021-08-26T19:03:41+02:00</time>
      </trkpt>
      <trkpt lat="44.84777" lon="5.17965">
        <ele>988</ele>
        <time>2021-08-26T19:03:46+02:00</time>
      </trkpt>
      <trkpt lat="44.84688" lon="5.18">
        <ele>977</ele>
        <time>2021-08-26T19:03:51+02:00</time>
      </trkpt>
      <trkpt lat="44.84615" lon="5.18017">
        <ele>971</ele>
        <time>2021-08-26T19:03:56+02:00</time>
      </trkpt>
      <trkpt lat="44.84569" lon="5.18012">
        <ele>972</ele>
        <time>2021-08-26T19:04:01+02:00</time>
      </trkpt>
      <trkpt lat="44.84526" lon="5.17997">
        <ele>977</ele>
        <time>2021-08-26T19:04:06+02:00</time>
      </trkpt>
      <trkpt lat="44.84502" lon="5.18021">
        <ele>969</ele>
        <time>2021-08-26T19:04:11+02:00</time>
      </trkpt>
      <trkpt lat="44.84476" lon="5.18038">
        <ele>962</ele>
        <time>2021-08-26T19:04:16+02:00</time>
      </trkpt>
      <trkpt lat="44.84447" lon="5.18047">
        <ele>957</ele>
        <time>2021-08-26T19:04:21+02:00</time>
      </trkpt>
      <trkpt lat="44.844" lon="5.18036">
        <ele>957</ele>
        <time>2021-08-26T19:04:26+02:00</time>
      </trkpt>
      <trkpt lat="44.84321" lon="5.18008">
        <ele>955</ele>
        <time>2021-08-26T19:04:31+02:00</time>
      </trkpt>
      <trkpt lat="44.84175" lon="5.17948">
        <ele>950</ele>
        <time>2021-08-26T19:04:36+02:00</time>
      </trkpt>
      <trkpt lat="44.84119" lon="5.17914">
        <ele>945</ele>
        <time>2021-08-26T19:04:41+02:00</time>
      </trkpt>
      <trkpt lat="44.84091" lon="5.17884">
        <ele>946</ele>
        <time>2021-08-26T19:04:46+02:00</time>
      </trkpt>
      <trkpt lat="44.84076" lon="5.17828">
        <ele>956</ele>
        <time>2021-08-26T19:04:51+02:00</time>
      </trkpt>
      <trkpt lat="44.84064" lon="5.17826">
        <ele>955</ele>
        <time>2021-08-26T19:04:56+02:00</time>
      </trkpt>
      <trkpt lat="44.84027" lon="5.17841">
        <ele>944</ele>
        <time>2021-08-26T19:05:01+02:00</time>
      </trkpt>
      <trkpt lat="44.83963" lon="5.17826">
        <ele>939</ele>
        <time>2021-08-26T19:05:06+02:00</time>
      </trkpt>
      <trkpt lat="44.83825" lon="5.17776">
        <ele>931</ele>
        <time>2021-08-26T19:05:11+02:00</time>
      </trkpt>
      <trkpt lat="44.83708" lon="5.17742">
        <ele>924</ele>
        <time>2021-08-26T19:05:16+02:00</time>
      </trkpt>
      <trkpt lat="44.83661" lon="5.17729">
        <ele>921</ele>
        <time>2021-08-26T19:05:21+02:00</time>
      </trkpt>
      <trkpt lat="44.83595" lon="5.1771">
        <ele>918</ele>
        <time>2021-08-26T19:05:26+02:00</time>
      </trkpt>
      <trkpt lat="44.83537" lon="5.17684">
        <ele>918</ele>
        <time>2021-08-26T19:05:31+02:00</time>
      </trkpt>
      <trkpt lat="44.83483" lon="5.17673">
        <ele>915</ele>
        <time>2021-08-26T19:05:36+02:00</time>
      </trkpt>
      <trkpt lat="44.83446" lon="5.17663">
        <ele>914</ele>
        <time>2021-08-26T19:05:41+02:00</time>
      </trkpt>
      <trkpt lat="44.83403" lon="5.17648">
        <ele>915</ele>
        <time>2021-08-26T19:05:46+02:00</time>
      </trkpt>
      <trkpt lat="44.83375" lon="5.1765">
        <ele>914</ele>
        <time>2021-08-26T19:05:51+02:00</time>
      </trkpt>
      <trkpt lat="44.83358" lon="5.17661">
        <ele>912</ele>
        <time>2021-08-26T19:05:56+02:00</time>
      </trkpt>
      <trkpt lat="44.83321" lon="5.17663">
        <ele>911</ele>
        <time>2021-08-26T19:06:01+02:00</time>
      </trkpt>
      <trkpt lat="44.83263" lon="5.17631">
        <ele>911</ele>
        <time>2021-08-26T19:06:06+02:00</time>
      </trkpt>
      <trkpt lat="44.83216" lon="5.176">
        <ele>913</ele>
        <time>2021-08-26T19:06:11+02:00</time>
      </trkpt>
      <trkpt lat="44.83177" lon="5.17555">
        <ele>917</ele>
        <time>2021-08-26T19:06:16+02:00</time>
      </trkpt>
      <trkpt lat="44.83131" lon="5.17534">
        <ele>920</ele>
        <time>2021-08-26T19:06:21+02:00</time>
      </trkpt>
      <trkpt lat="44.83087" lon="5.17564">
        <ele>921</ele>
        <time>2021-08-26T19:06:26+02:00</time>
      </trkpt>
      <trkpt lat="44.83061" lon="5.17592">
        <ele>922</ele>
        <time>2021-08-26T19:06:31+02:00</time>
      </trkpt>
      <trkpt lat="44.83044" lon="5.17596">
        <ele>923</ele>
        <time>2021-08-26T19:06:36+02:00</time>
      </trkpt>
      <trkpt lat="44.82964" lon="5.17555">
        <ele>930</ele>
        <time>2021-08-26T19:06:41+02:00</time>
      </trkpt>
      <trkpt lat="44.82895" lon="5.17528">
        <ele>935</ele>
        <time>2021-08-26T19:06:46+02:00</time>
      </trkpt>
      <trkpt lat="44.8285" lon="5.17517">
        <ele>939</ele>
        <time>2021-08-26T19:06:51+02:00</time>
      </trkpt>
      <trkpt lat="44.82831" lon="5.1751">
        <ele>941</ele>
        <time>2021-08-26T19:06:56+02:00</time>
      </trkpt>
      <trkpt lat="44.82801" lon="5.17463">
        <ele>942</ele>
        <time>2021-08-26T19:07:01+02:00</time>
      </trkpt>
      <trkpt lat="44.82784" lon="5.17437">
        <ele>942</ele>
        <time>2021-08-26T19:07:06+02:00</time>
      </trkpt>
      <trkpt lat="44.82758" lon="5.17407">
        <ele>944</ele>
        <time>2021-08-26T19:07:11+02:00</time>
      </trkpt>
      <trkpt lat="44.82725" lon="5.1739">
        <ele>945</ele>
        <time>2021-08-26T19:07:16+02:00</time>
      </trkpt>
      <trkpt lat="44.82662" lon="5.17347">
        <ele>944</ele>
        <time>2021-08-26T19:07:21+02:00</time>
      </trkpt>
      <trkpt lat="44.8264" lon="5.17313">
        <ele>944</ele>
        <time>2021-08-26T19:07:26+02:00</time>
      </trkpt>
      <trkpt lat="44.82609" lon="5.17309">
        <ele>945</ele>
        <time>2021-08-26T19:07:31+02:00</time>
      </trkpt>
      <trkpt lat="44.82521" lon="5.17328">
        <ele>947</ele>
        <time>2021-08-26T19:07:36+02:00</time>
      </trkpt>
      <trkpt lat="44.8244" lon="5.17339">
        <ele>951</ele>
        <time>2021-08-26T19:07:41+02:00</time>
      </trkpt>
      <trkpt lat="44.82413" lon="5.17319">
        <ele>952</ele>
        <time>2021-08-26T19:07:46+02:00</time>
      </trkpt>
      <trkpt lat="44.82349" lon="5.17272">
        <ele>952</ele>
        <time>2021-08-26T19:07:51+02:00</time>
      </trkpt>
      <trkpt lat="44.82335" lon="5.17261">
        <ele>952</ele>
        <time>2021-08-26T19:07:56+02:00</time>
      </trkpt>
      <trkpt lat="44.82315" lon="5.17266">
        <ele>954</ele>
        <time>2021-08-26T19:08:01+02:00</time>
      </trkpt>
      <trkpt lat="44.82296" lon="5.17257">
        <ele>955</ele>
        <time>2021-08-26T19:08:06+02:00</time>
      </trkpt>
      <trkpt lat="44.82215" lon="5.1718">
        <ele>957</ele>
        <time>2021-08-26T19:08:11+02:00</time>
      </trkpt>
      <trkpt lat="44.82136" lon="5.17105">
        <ele>956</ele>
        <time>2021-08-26T19:08:16+02:00</time>
      </trkpt>
      <trkpt lat="44.82078" lon="5.1707">
        <ele>951</ele>
        <time>2021-08-26T19:08:21+02:00</time>
      </trkpt>
      <trkpt lat="44.82035" lon="5.17047">
        <ele>949</ele>
        <time>2021-08-26T19:08:26+02:00</time>
      </trkpt>
      <trkpt lat="44.82012" lon="5.17028">
        <ele>946</ele>
        <time>2021-08-26T19:08:31+02:00</time>
      </trkpt>
      <trkpt lat="44.81976" lon="5.17019">
        <ele>945</ele>
        <time>2021-08-26T19:08:36+02:00</time>
      </trkpt>
      <trkpt lat="44.81929" lon="5.16961">
        <ele>938</ele>
        <time>2021-08-26T19:08:41+02:00</time>
      </trkpt>
      <trkpt lat="44.81901" lon="5.1694">
        <ele>936</ele>
        <time>2021-08-26T19:08:46+02:00</time>
      </trkpt>
      <trkpt lat="44.81876" lon="5.16905">
        <ele>933</ele>
        <time>2021-08-26T19:08:51+02:00</time>
      </trkpt>
      <trkpt lat="44.81853" lon="5.16869">
        <ele>924</ele>
        <time>2021-08-26T19:08:56+02:00</time>
      </trkpt>
      <trkpt lat="44.81849" lon="5.16873">
        <ele>926</ele>
        <time>2021-08-26T19:09:01+02:00</time>
      </trkpt>
      <trkpt lat="44.8183" lon="5.16867">
        <ele>924</ele>
        <time>2021-08-26T19:09:06+02:00</time>
      </trkpt>
      <trkpt lat="44.81806" lon="5.16851">
        <ele>920</ele>
        <time>2021-08-26T19:09:11+02:00</time>
      </trkpt>
      <trkpt lat="44.81789" lon="5.16842">
        <ele>919</ele>
        <time>2021-08-26T19:09:16+02:00</time>
      </trkpt>
      <trkpt lat="44.81762" lon="5.1683">
        <ele>916</ele>
        <time>2021-08-26T19:09:21+02:00</time>
      </trkpt>
      <trkpt lat="44.81748" lon="5.16821">
        <ele>912</ele>
        <time>2021-08-26T19:09:26+02:00</time>
      </trkpt>
      <trkpt lat="44.81742" lon="5.16821">
        <ele>911</ele>
        <time>2021-08-26T19:09:31+02:00</time>
      </trkpt>
      <trkpt lat="44.8173" lon="5.16825">
        <ele>912</ele>
        <time>2021-08-26T19:09:36+02:00</time>
      </trkpt>
      <trkpt lat="44.81717" lon="5.16824">
        <ele>911</ele>
        <time>2021-08-26T19:09:41+02:00</time>
      </trkpt>
      <trkpt lat="44.817" lon="5.16818">
        <ele>907</ele>
        <time>2021-08-26T19:09:46+02:00</time>
      </trkpt>
      <trkpt lat="44.81685" lon="5.16824">
        <ele>908</ele>
        <time>2021-08-26T19:09:51+02:00</time>
      </trkpt>
      <trkpt lat="44.81672" lon="5.16824">
        <ele>907</ele>
        <time>2021-08-26T19:09:56+02:00</time>
      </trkpt>
      <trkpt lat="44.81661" lon="5.16825">
        <ele>904</ele>
        <time>2021-08-26T19:10:01+02:00</time>
      </trkpt>
      <trkpt lat="44.81657" lon="5.16826">
        <ele>903</ele>
        <time>2021-08-26T19:10:06+02:00</time>
      </trkpt>
      <trkpt lat="44.81656" lon="5.1683">
        <ele>903</ele>
        <time>2021-08-26T19:10:11+02:00</time>
      </trkpt>
      <trkpt lat="44.81655" lon="5.16833">
        <ele>903</ele>
        <time>2021-08-26T19:10:16+02:00</time>
      </trkpt>
      <trkpt lat="44.81657" lon="5.16827">
        <ele>903</ele>
        <time>2021-08-26T19:10:21+02:00</time>
      </trkpt>
      <trkpt lat="44.81665" lon="5.16824">
        <ele>906</ele>
        <time>2021-08-26T19:10:26+02:00</time>
      </trkpt>
      <trkpt lat="44.81679" lon="5.16824">
        <ele>908</ele>
        <time>2021-08-26T19:10:31+02:00</time>
      </trkpt>
      <trkpt lat="44.81685" lon="5.16823">
        <ele>908</ele>
        <time>2021-08-26T19:10:36+02:00</time>
      </trkpt>
      <trkpt lat="44.81702" lon="5.16819">
        <ele>908</ele>
        <time>2021-08-26T19:10:41+02:00</time>
      </trkpt>
      <trkpt lat="44.81723" lon="5.16826">
        <ele>912</ele>
        <time>2021-08-26T19:10:46+02:00</time>
      </trkpt>
      <trkpt lat="44.81747" lon="5.16819">
        <ele>911</ele>
        <time>2021-08-26T19:10:51+02:00</time>
      </trkpt>
      <trkpt lat="44.81785" lon="5.16837">
        <ele>917</ele>
        <time>2021-08-26T19:10:56+02:00</time>
      </trkpt>
      <trkpt lat="44.81812" lon="5.16854">
        <ele>921</ele>
        <time>2021-08-26T19:11:01+02:00</time>
      </trkpt>
      <trkpt lat="44.8185" lon="5.16873">
        <ele>926</ele>
        <time>2021-08-26T19:11:06+02:00</time>
      </trkpt>
      <trkpt lat="44.81856" lon="5.16873">
        <ele>926</ele>
        <time>2021-08-26T19:11:11+02:00</time>
      </trkpt>
      <trkpt lat="44.81857" lon="5.16871">
        <ele>925</ele>
        <time>2021-08-26T19:11:16+02:00</time>
      </trkpt>
      <trkpt lat="44.81841" lon="5.16858">
        <ele>922</ele>
        <time>2021-08-26T19:11:21+02:00</time>
      </trkpt>
      <trkpt lat="44.81837" lon="5.16849">
        <ele>919</ele>
        <time>2021-08-26T19:11:26+02:00</time>
      </trkpt>
      <trkpt lat="44.81823" lon="5.16839">
        <ele>916</ele>
        <time>2021-08-26T19:11:31+02:00</time>
      </trkpt>
      <trkpt lat="44.8182" lon="5.16826">
        <ele>911</ele>
        <time>2021-08-26T19:11:36+02:00</time>
      </trkpt>
      <trkpt lat="44.81843" lon="5.1682">
        <ele>907</ele>
        <time>2021-08-26T19:11:41+02:00</time>
      </trkpt>
      <trkpt lat="44.81844" lon="5.16811">
        <ele>903</ele>
        <time>2021-08-26T19:11:46+02:00</time>
      </trkpt>
      <trkpt lat="44.81831" lon="5.16798">
        <ele>897</ele>
        <time>2021-08-26T19:11:51+02:00</time>
      </trkpt>
      <trkpt lat="44.81809" lon="5.16795">
        <ele>897</ele>
        <time>2021-08-26T19:11:56+02:00</time>
      </trkpt>
      <trkpt lat="44.81802" lon="5.16791">
        <ele>895</ele>
        <time>2021-08-26T19:12:01+02:00</time>
      </trkpt>
      <trkpt lat="44.81806" lon="5.1678">
        <ele>889</ele>
        <time>2021-08-26T19:12:06+02:00</time>
      </trkpt>
      <trkpt lat="44.81797" lon="5.16775">
        <ele>887</ele>
        <time>2021-08-26T19:12:11+02:00</time>
      </trkpt>
      <trkpt lat="44.81781" lon="5.16768">
        <ele>885</ele>
        <time>2021-08-26T19:12:16+02:00</time>
      </trkpt>
      <trkpt lat="44.81761" lon="5.16755">
        <ele>881</ele>
        <time>2021-08-26T19:12:21+02:00</time>
      </trkpt>
      <trkpt lat="44.81749" lon="5.16756">
        <ele>882</ele>
        <time>2021-08-26T19:12:26+02:00</time>
      </trkpt>
      <trkpt lat="44.81727" lon="5.16756">
        <ele>883</ele>
        <time>2021-08-26T19:12:31+02:00</time>
      </trkpt>
      <trkpt lat="44.817" lon="5.16751">
        <ele>882</ele>
        <time>2021-08-26T19:12:36+02:00</time>
      </trkpt>
      <trkpt lat="44.81681" lon="5.1674">
        <ele>878</ele>
        <time>2021-08-26T19:12:41+02:00</time>
      </trkpt>
      <trkpt lat="44.81664" lon="5.1674">
        <ele>877</ele>
        <time>2021-08-26T19:12:46+02:00</time>
      </trkpt>
      <trkpt lat="44.8165" lon="5.1675">
        <ele>875</ele>
        <time>2021-08-26T19:12:51+02:00</time>
      </trkpt>
      <trkpt lat="44.81639" lon="5.1676">
        <ele>873</ele>
        <time>2021-08-26T19:12:56+02:00</time>
      </trkpt>
      <trkpt lat="44.8163" lon="5.16782">
        <ele>875</ele>
        <time>2021-08-26T19:13:01+02:00</time>
      </trkpt>
      <trkpt lat="44.81621" lon="5.16804">
        <ele>876</ele>
        <time>2021-08-26T19:13:06+02:00</time>
      </trkpt>
      <trkpt lat="44.81611" lon="5.16832">
        <ele>879</ele>
        <time>2021-08-26T19:13:11+02:00</time>
      </trkpt>
      <trkpt lat="44.81608" lon="5.16857">
        <ele>873</ele>
        <time>2021-08-26T19:13:16+02:00</time>
      </trkpt>
      <trkpt lat="44.81614" lon="5.16889">
        <ele>870</ele>
        <time>2021-08-26T19:13:21+02:00</time>
      </trkpt>
      <trkpt lat="44.81634" lon="5.16939">
        <ele>869</ele>
        <time>2021-08-26T19:13:26+02:00</time>
      </trkpt>
      <trkpt lat="44.8165" lon="5.16972">
        <ele>865</ele>
        <time>2021-08-26T19:13:31+02:00</time>
      </trkpt>
      <trkpt lat="44.81665" lon="5.17001">
        <ele>861</ele>
        <time>2021-08-26T19:13:36+02:00</time>
      </trkpt>
      <trkpt lat="44.81681" lon="5.17035">
        <ele>855</ele>
        <time>2021-08-26T19:13:41+02:00</time>
      </trkpt>
      <trkpt lat="44.81694" lon="5.17068">
        <ele>845</ele>
        <time>2021-08-26T19:13:46+02:00</time>
      </trkpt>
      <trkpt lat="44.81707" lon="5.17091">
        <ele>838</ele>
        <time>2021-08-26T19:13:51+02:00</time>
      </trkpt>
      <trkpt lat="44.81725" lon="5.17122">
        <ele>830</ele>
        <time>2021-08-26T19:13:56+02:00</time>
      </trkpt>
      <trkpt lat="44.81761" lon="5.17179">
        <ele>819</ele>
        <time>2021-08-26T19:14:01+02:00</time>
      </trkpt>
      <trkpt lat="44.81777" lon="5.17204">
        <ele>820</ele>
        <time>2021-08-26T19:14:06+02:00</time>
      </trkpt>
      <trkpt lat="44.81791" lon="5.17246">
        <ele>813</ele>
        <time>2021-08-26T19:14:11+02:00</time>
      </trkpt>
      <trkpt lat="44.81802" lon="5.17301">
        <ele>802</ele>
        <time>2021-08-26T19:14:16+02:00</time>
      </trkpt>
      <trkpt lat="44.81813" lon="5.17349">
        <ele>795</ele>
        <time>2021-08-26T19:14:21+02:00</time>
      </trkpt>
      <trkpt lat="44.81815" lon="5.1736">
        <ele>793</ele>
        <time>2021-08-26T19:14:26+02:00</time>
      </trkpt>
      <trkpt lat="44.81812" lon="5.17375">
        <ele>789</ele>
        <time>2021-08-26T19:14:31+02:00</time>
      </trkpt>
      <trkpt lat="44.81796" lon="5.17384">
        <ele>782</ele>
        <time>2021-08-26T19:14:36+02:00</time>
      </trkpt>
      <trkpt lat="44.81775" lon="5.17387">
        <ele>773</ele>
        <time>2021-08-26T19:14:41+02:00</time>
      </trkpt>
      <trkpt lat="44.81764" lon="5.17385">
        <ele>770</ele>
        <time>2021-08-26T19:14:46+02:00</time>
      </trkpt>
      <trkpt lat="44.81755" lon="5.17345">
        <ele>773</ele>
        <time>2021-08-26T19:14:51+02:00</time>
      </trkpt>
      <trkpt lat="44.81736" lon="5.17315">
        <ele>773</ele>
        <time>2021-08-26T19:14:56+02:00</time>
      </trkpt>
      <trkpt lat="44.8172" lon="5.17296">
        <ele>772</ele>
        <time>2021-08-26T19:15:01+02:00</time>
      </trkpt>
      <trkpt lat="44.81697" lon="5.1728">
        <ele>768</ele>
        <time>2021-08-26T19:15:06+02:00</time>
      </trkpt>
      <trkpt lat="44.81684" lon="5.17269">
        <ele>765</ele>
        <time>2021-08-26T19:15:11+02:00</time>
      </trkpt>
      <trkpt lat="44.81655" lon="5.17242">
        <ele>764</ele>
        <time>2021-08-26T19:15:16+02:00</time>
      </trkpt>
      <trkpt lat="44.8162" lon="5.17212">
        <ele>767</ele>
        <time>2021-08-26T19:15:21+02:00</time>
      </trkpt>
      <trkpt lat="44.81599" lon="5.17211">
        <ele>764</ele>
        <time>2021-08-26T19:15:26+02:00</time>
      </trkpt>
      <trkpt lat="44.81585" lon="5.17209">
        <ele>763</ele>
        <time>2021-08-26T19:15:31+02:00</time>
      </trkpt>
      <trkpt lat="44.81564" lon="5.17175">
        <ele>764</ele>
        <time>2021-08-26T19:15:36+02:00</time>
      </trkpt>
      <trkpt lat="44.81544" lon="5.17149">
        <ele>766</ele>
        <time>2021-08-26T19:15:41+02:00</time>
      </trkpt>
      <trkpt lat="44.81526" lon="5.17131">
        <ele>767</ele>
        <time>2021-08-26T19:15:46+02:00</time>
      </trkpt>
      <trkpt lat="44.81509" lon="5.17127">
        <ele>763</ele>
        <time>2021-08-26T19:15:51+02:00</time>
      </trkpt>
      <trkpt lat="44.8147" lon="5.17103">
        <ele>759</ele>
        <time>2021-08-26T19:15:56+02:00</time>
      </trkpt>
      <trkpt lat="44.81439" lon="5.17085">
        <ele>755</ele>
        <time>2021-08-26T19:16:01+02:00</time>
      </trkpt>
      <trkpt lat="44.81407" lon="5.17079">
        <ele>748</ele>
        <time>2021-08-26T19:16:06+02:00</time>
      </trkpt>
      <trkpt lat="44.81391" lon="5.17069">
        <ele>746</ele>
        <time>2021-08-26T19:16:11+02:00</time>
      </trkpt>
      <trkpt lat="44.81379" lon="5.17055">
        <ele>745</ele>
        <time>2021-08-26T19:16:16+02:00</time>
      </trkpt>
      <trkpt lat="44.81375" lon="5.17024">
        <ele>747</ele>
        <time>2021-08-26T19:16:21+02:00</time>
      </trkpt>
      <trkpt lat="44.81369" lon="5.16991">
        <ele>748</ele>
        <time>2021-08-26T19:16:26+02:00</time>
      </trkpt>
      <trkpt lat="44.81366" lon="5.16968">
        <ele>748</ele>
        <time>2021-08-26T19:16:31+02:00</time>
      </trkpt>
      <trkpt lat="44.81369" lon="5.16945">
        <ele>750</ele>
        <time>2021-08-26T19:16:36+02:00</time>
      </trkpt>
      <trkpt lat="44.81356" lon="5.16884">
        <ele>747</ele>
        <time>2021-08-26T19:16:41+02:00</time>
      </trkpt>
      <trkpt lat="44.81332" lon="5.16733">
        <ele>740</ele>
        <time>2021-08-26T19:16:46+02:00</time>
      </trkpt>
      <trkpt lat="44.8132" lon="5.16694">
        <ele>737</ele>
        <time>2021-08-26T19:16:51+02:00</time>
      </trkpt>
      <trkpt lat="44.81312" lon="5.16674">
        <ele>735</ele>
        <time>2021-08-26T19:16:56+02:00</time>
      </trkpt>
      <trkpt lat="44.81287" lon="5.16627">
        <ele>730</ele>
        <time>2021-08-26T19:17:01+02:00</time>
      </trkpt>
      <trkpt lat="44.81289" lon="5.16591">
        <ele>729</ele>
        <time>2021-08-26T19:17:06+02:00</time>
      </trkpt>
      <trkpt lat="44.81294" lon="5.16529">
        <ele>723</ele>
        <time>2021-08-26T19:17:11+02:00</time>
      </trkpt>
      <trkpt lat="44.81305" lon="5.16527">
        <ele>725</ele>
        <time>2021-08-26T19:17:16+02:00</time>
      </trkpt>
      <trkpt lat="44.81306" lon="5.16517">
        <ele>724</ele>
        <time>2021-08-26T19:17:21+02:00</time>
      </trkpt>
      <trkpt lat="44.81313" lon="5.16503">
        <ele>723</ele>
        <time>2021-08-26T19:17:26+02:00</time>
      </trkpt>
      <trkpt lat="44.81299" lon="5.16499">
        <ele>721</ele>
        <time>2021-08-26T19:17:31+02:00</time>
      </trkpt>
      <trkpt lat="44.81283" lon="5.16497">
        <ele>719</ele>
        <time>2021-08-26T19:17:36+02:00</time>
      </trkpt>
      <trkpt lat="44.81284" lon="5.16485">
        <ele>717</ele>
        <time>2021-08-26T19:17:41+02:00</time>
      </trkpt>
      <trkpt lat="44.81295" lon="5.16466">
        <ele>716</ele>
        <time>2021-08-26T19:17:46+02:00</time>
      </trkpt>
      <trkpt lat="44.81299" lon="5.16454">
        <ele>716</ele>
        <time>2021-08-26T19:17:51+02:00</time>
      </trkpt>
      <trkpt lat="44.81299" lon="5.16445">
        <ele>715</ele>
        <time>2021-08-26T19:17:56+02:00</time>
      </trkpt>
      <trkpt lat="44.81291" lon="5.16442">
        <ele>713</ele>
        <time>2021-08-26T19:18:01+02:00</time>
      </trkpt>
      <trkpt lat="44.8129" lon="5.1645">
        <ele>714</ele>
        <time>2021-08-26T19:18:06+02:00</time>
      </trkpt>
    </trkseg>
  </trk>
</gpx>